createdAt,value
2022-10-07T00:12:06.553Z,11
2022-10-07T00:40:26.798Z,11
2022-10-07T01:08:41.917Z,11
2022-10-07T01:37:03.394Z,11
2022-10-07T02:05:24.785Z,10
2022-10-07T02:33:43.580Z,13
2022-10-07T03:02:05.313Z,10
2022-10-07T03:30:27.267Z,17
2022-10-07T03:58:43.285Z,10
2022-10-07T04:27:52.016Z,11
2022-10-07T04:56:08.363Z,11
2022-10-07T05:25:14.232Z,11
2022-10-07T05:54:10.835Z,13
2022-10-07T06:22:58.414Z,11
2022-10-07T06:51:57.851Z,10
2022-10-07T07:21:09.104Z,10
2022-10-07T07:50:09.256Z,11
2022-10-07T08:19:04.431Z,11
2022-10-07T08:48:05.616Z,11
2022-10-07T09:16:09.197Z,11
2022-10-07T09:45:36.006Z,11
2022-10-07T10:14:57.322Z,10
2022-10-07T10:43:59.800Z,11
2022-10-07T11:12:38.278Z,11
2022-10-07T11:41:21.631Z,11
2022-10-07T12:10:20.823Z,13
2022-10-07T12:39:20.142Z,10
2022-10-07T13:08:10.750Z,10
2022-10-07T13:36:58.957Z,10
2022-10-07T14:06:06.174Z,10
2022-10-07T14:34:52.543Z,10
2022-10-07T15:03:52.182Z,14
2022-10-07T15:32:41.432Z,11
2022-10-07T16:01:28.613Z,11
2022-10-07T16:30:15.666Z,14
2022-10-07T16:59:01.297Z,14
2022-10-07T17:27:12.426Z,18
2022-10-07T17:55:30.641Z,14
2022-10-07T18:24:31.034Z,20
2022-10-07T18:53:24.864Z,25
2022-10-07T19:22:18.125Z,26
2022-10-07T19:50:34.248Z,28
2022-10-07T20:18:56.573Z,24
2022-10-07T20:47:17.989Z,23
2022-10-07T21:15:25.922Z,23
2022-10-07T21:43:44.548Z,22
2022-10-07T22:12:03.558Z,20
2022-10-07T22:41:02.457Z,20
2022-10-07T23:09:55.908Z,20
2022-10-07T23:38:44.918Z,22
